Ana Sayfa
METAR-TAF:

METAR-TAF

Havaalanları :

Nanning, Çin

Enlem: 22-49N, Boylam: 108-21E, yükseklik: 73 m

Güncel hava durumu gözlemi

Rapor saat 14:00 UTC de 1 saat ve 7 dakika önce yapıldı.
Rüzgar değişken yönden 2 kt
Sıcaklık 27°C
Nem 94%
Basınç 997 hPa
Görüş mesafesi 10 km veya daha fazla
1500 m altında bulut yok ve kümülonimbus yok

METAR: ZGNN 241400Z VRB01MPS CAVOK 27/26 Q0997 NOSIG

Saat: 23:07 (15:07 UTC)

Tahmin

Rapor saat 09:06 UTC de 6 saat ve 1 dakika önce yapıldı.
Ayın 24'si saat 12 UTC'den ayın 25'si saat 12 UTC'ye kadar geçerli Tahmin
Rüzgar doğu/güneydoğudan 6 kt
Görüş mesafesi: 6000 m
3300 ft yükseklikte parçalı bulutlu
Geçici
ayın 25'si saat 06 UTC'den ayın 25'si saat 10 UTC'ye kadar
2600 ft yükseklikte az bulutlu, Kümülonimbus.
3300 ft yükseklikte parçalı bulutlu

TAF: ZGNN 240906Z 2412/2512 12003MPS 6000 SCT033 TX35/2507Z TN25/2422Z TEMPO 2506/2510 FEW026CB SCT033

4.000'den fazla havaalanı için hava durumu gözlemleri ve tahminleri (METAR ve TAF raporları).

Kullanılabilir istasyonlar harita üzerinde sarı ve kırmızı noktalarla gösterilir.

İstasyonun adını görmek için fareyi noktanın üzerinde gezdirin.

Sonrasında hava gözlem ve tahminlerini görmek için tıklayın.

Haritayı değiştirmek için: yaklaştırmak için siyah artı işaretli yeşil düğmeye ve uzaklaştırmak için de eksi işaretli düğmeye hızla tıklayın; bitişik haritalar için yeşil okları kullanın.


METAR-TAF: